sensor_id;sensor_type;location;lat;lon;timestamp;pressure;altitude;pressure_sealevel;temperature;humidity
56604;BME280;42486;47.478;19.036;2023-05-20T00:01:32;100682.22;;;15.63;100.00
56604;BME280;42486;47.478;19.036;2023-05-20T00:04:43;100678.34;;;15.57;100.00
56604;BME280;42486;47.478;19.036;2023-05-20T00:07:48;100664.91;;;15.51;100.00
56604;BME280;42486;47.478;19.036;2023-05-20T00:10:55;100675.97;;;15.45;100.00
56604;BME280;42486;47.478;19.036;2023-05-20T00:14:03;100680.53;;;15.33;100.00
56604;BME280;42486;47.478;19.036;2023-05-20T00:17:06;100669.56;;;15.28;100.00
56604;BME280;42486;47.478;19.036;2023-05-20T00:20:13;100663.87;;;15.23;100.00
56604;BME280;42486;47.478;19.036;2023-05-20T00:23:18;100667.16;;;15.05;100.00
56604;BME280;42486;47.478;19.036;2023-05-20T00:26:30;100660.22;;;15.04;100.00
56604;BME280;42486;47.478;19.036;2023-05-20T00:29:35;100653.87;;;15.07;100.00
56604;BME280;42486;47.478;19.036;2023-05-20T00:32:58;100652.06;;;15.07;100.00
56604;BME280;42486;47.478;19.036;2023-05-20T00:36:05;100654.25;;;15.02;100.00
56604;BME280;42486;47.478;19.036;2023-05-20T00:39:42;100653.16;;;14.95;100.00
56604;BME280;42486;47.478;19.036;2023-05-20T00:42:55;100656.91;;;15.02;100.00
56604;BME280;42486;47.478;19.036;2023-05-20T00:46:00;100662.44;;;14.99;100.00
56604;BME280;42486;47.478;19.036;2023-05-20T00:49:06;100654.53;;;14.99;100.00
56604;BME280;42486;47.478;19.036;2023-05-20T00:52:19;100653.16;;;14.95;100.00
56604;BME280;42486;47.478;19.036;2023-05-20T00:55:30;100645.50;;;14.92;100.00
56604;BME280;42486;47.478;19.036;2023-05-20T00:58:44;100647.34;;;15.01;100.00
56604;BME280;42486;47.478;19.036;2023-05-20T01:01:50;100651.63;;;15.02;100.00
56604;BME280;42486;47.478;19.036;2023-05-20T01:05:11;100650.25;;;14.98;100.00
56604;BME280;42486;47.478;19.036;2023-05-20T01:08:22;100650.37;;;14.96;100.00
56604;BME280;42486;47.478;19.036;2023-05-20T01:11:33;100654.25;;;14.92;100.00
56604;BME280;42486;47.478;19.036;2023-05-20T01:14:49;100652.72;;;14.90;100.00
56604;BME280;42486;47.478;19.036;2023-05-20T01:18:24;100653.84;;;14.97;100.00
56604;BME280;42486;47.478;19.036;2023-05-20T01:21:41;100659.91;;;14.88;100.00
56604;BME280;42486;47.478;19.036;2023-05-20T01:25:06;100660.47;;;14.91;100.00
56604;BME280;42486;47.478;19.036;2023-05-20T01:28:21;100656.72;;;14.84;100.00
56604;BME280;42486;47.478;19.036;2023-05-20T01:31:43;100656.94;;;14.71;100.00
56604;BME280;42486;47.478;19.036;2023-05-20T01:35:06;100666.22;;;14.75;100.00
56604;BME280;42486;47.478;19.036;2023-05-20T01:38:14;100669.94;;;14.73;100.00
56604;BME280;42486;47.478;19.036;2023-05-20T01:41:24;100676.31;;;14.70;100.00
56604;BME280;42486;47.478;19.036;2023-05-20T01:44:53;100671.03;;;14.70;100.00
56604;BME280;42486;47.478;19.036;2023-05-20T01:48:15;100678.25;;;14.68;100.00
56604;BME280;42486;47.478;19.036;2023-05-20T01:51:18;100682.97;;;14.74;100.00
56604;BME280;42486;47.478;19.036;2023-05-20T01:54:24;100686.16;;;14.68;100.00
56604;BME280;42486;47.478;19.036;2023-05-20T01:57:29;100681.72;;;14.69;100.00
56604;BME280;42486;47.478;19.036;2023-05-20T02:00:34;100680.09;;;14.78;100.00
56604;BME280;42486;47.478;19.036;2023-05-20T02:03:39;100683.16;;;14.83;100.00
56604;BME280;42486;47.478;19.036;2023-05-20T02:06:42;100678.53;;;14.75;100.00
56604;BME280;42486;47.478;19.036;2023-05-20T02:09:46;100679.38;;;14.75;100.00
56604;BME280;42486;47.478;19.036;2023-05-20T02:12:49;100686.88;;;14.80;100.00
56604;BME280;42486;47.478;19.036;2023-05-20T02:15:53;100673.44;;;14.83;100.00
56604;BME280;42486;47.478;19.036;2023-05-20T02:18:56;100673.44;;;14.73;100.00
56604;BME280;42486;47.478;19.036;2023-05-20T02:22:00;100678.44;;;14.77;100.00
56604;BME280;42486;47.478;19.036;2023-05-20T02:25:04;100669.88;;;14.84;100.00
56604;BME280;42486;47.478;19.036;2023-05-20T02:28:10;100676.78;;;14.85;100.00
56604;BME280;42486;47.478;19.036;2023-05-20T02:31:14;100672.69;;;14.92;100.00
56604;BME280;42486;47.478;19.036;2023-05-20T02:34:19;100680.41;;;14.94;100.00
56604;BME280;42486;47.478;19.036;2023-05-20T02:37:23;100683.47;;;14.99;100.00
56604;BME280;42486;47.478;19.036;2023-05-20T02:40:26;100680.28;;;14.95;100.00
56604;BME280;42486;47.478;19.036;2023-05-20T02:43:33;100681.25;;;14.94;100.00
56604;BME280;42486;47.478;19.036;2023-05-20T02:46:39;100689.28;;;14.93;100.00
56604;BME280;42486;47.478;19.036;2023-05-20T02:50:08;100687.59;;;14.82;100.00
56604;BME280;42486;47.478;19.036;2023-05-20T02:53:11;100683.69;;;14.77;100.00
56604;BME280;42486;47.478;19.036;2023-05-20T02:56:15;100682.53;;;14.69;100.00
56604;BME280;42486;47.478;19.036;2023-05-20T02:59:22;100677.37;;;14.58;100.00
56604;BME280;42486;47.478;19.036;2023-05-20T03:02:26;100676.94;;;14.53;100.00
56604;BME280;42486;47.478;19.036;2023-05-20T03:05:30;100676.00;;;14.64;100.00
56604;BME280;42486;47.478;19.036;2023-05-20T03:08:37;100681.53;;;14.61;100.00
56604;BME280;42486;47.478;19.036;2023-05-20T03:11:41;100675.19;;;14.63;100.00
56604;BME280;42486;47.478;19.036;2023-05-20T03:14:48;100683.63;;;14.67;100.00
56604;BME280;42486;47.478;19.036;2023-05-20T03:17:58;100684.47;;;14.67;100.00
56604;BME280;42486;47.478;19.036;2023-05-20T03:21:01;100685.69;;;14.63;100.00
56604;BME280;42486;47.478;19.036;2023-05-20T03:24:06;100692.50;;;14.66;100.00
56604;BME280;42486;47.478;19.036;2023-05-20T03:27:09;100694.25;;;14.65;100.00
56604;BME280;42486;47.478;19.036;2023-05-20T03:30:12;100699.16;;;14.70;100.00
56604;BME280;42486;47.478;19.036;2023-05-20T03:33:15;100697.59;;;14.67;100.00
56604;BME280;42486;47.478;19.036;2023-05-20T03:36:19;100703.12;;;14.64;100.00
56604;BME280;42486;47.478;19.036;2023-05-20T03:39:23;100696.06;;;14.65;100.00
56604;BME280;42486;47.478;19.036;2023-05-20T03:42:28;100705.81;;;14.74;100.00
56604;BME280;42486;47.478;19.036;2023-05-20T03:45:32;100701.66;;;14.71;100.00
56604;BME280;42486;47.478;19.036;2023-05-20T03:48:36;100703.66;;;14.58;100.00
56604;BME280;42486;47.478;19.036;2023-05-20T03:51:39;100709.47;;;14.62;100.00
56604;BME280;42486;47.478;19.036;2023-05-20T03:54:42;100707.75;;;14.51;100.00
56604;BME280;42486;47.478;19.036;2023-05-20T03:57:44;100713.47;;;14.56;100.00
56604;BME280;42486;47.478;19.036;2023-05-20T04:00:51;100710.47;;;14.61;100.00
56604;BME280;42486;47.478;19.036;2023-05-20T04:03:55;100721.69;;;14.63;100.00
56604;BME280;42486;47.478;19.036;2023-05-20T04:07:00;100720.78;;;14.73;100.00
56604;BME280;42486;47.478;19.036;2023-05-20T04:10:06;100726.44;;;14.79;100.00
56604;BME280;42486;47.478;19.036;2023-05-20T04:13:09;100722.50;;;14.84;100.00
56604;BME280;42486;47.478;19.036;2023-05-20T04:16:15;100735.94;;;14.91;100.00
56604;BME280;42486;47.478;19.036;2023-05-20T04:19:18;100730.50;;;14.83;100.00
56604;BME280;42486;47.478;19.036;2023-05-20T04:22:23;100739.66;;;14.88;100.00
56604;BME280;42486;47.478;19.036;2023-05-20T04:25:26;100733.62;;;14.97;100.00
56604;BME280;42486;47.478;19.036;2023-05-20T04:28:35;100736.53;;;15.04;100.00
56604;BME280;42486;47.478;19.036;2023-05-20T04:31:39;100738.69;;;15.20;100.00
56604;BME280;42486;47.478;19.036;2023-05-20T04:34:42;100734.56;;;15.37;100.00
56604;BME280;42486;47.478;19.036;2023-05-20T04:37:48;100738.16;;;15.86;100.00
56604;BME280;42486;47.478;19.036;2023-05-20T04:40:57;100738.03;;;17.21;100.00
56604;BME280;42486;47.478;19.036;2023-05-20T04:44:01;100761.59;;;17.87;100.00
56604;BME280;42486;47.478;19.036;2023-05-20T04:47:05;100762.34;;;18.33;100.00
56604;BME280;42486;47.478;19.036;2023-05-20T04:50:10;100758.97;;;18.23;100.00
56604;BME280;42486;47.478;19.036;2023-05-20T04:53:14;100769.03;;;17.74;100.00
56604;BME280;42486;47.478;19.036;2023-05-20T04:56:18;100756.94;;;17.26;100.00
56604;BME280;42486;47.478;19.036;2023-05-20T04:59:22;100763.81;;;17.36;100.00
56604;BME280;42486;47.478;19.036;2023-05-20T05:02:27;100762.78;;;17.75;100.00
56604;BME280;42486;47.478;19.036;2023-05-20T05:05:30;100756.44;;;18.39;97.91
56604;BME280;42486;47.478;19.036;2023-05-20T05:08:32;100753.09;;;18.11;96.38
56604;BME280;42486;47.478;19.036;2023-05-20T05:11:36;100752.31;;;18.19;97.47
56604;BME280;42486;47.478;19.036;2023-05-20T05:14:41;100751.53;;;18.44;95.04
56604;BME280;42486;47.478;19.036;2023-05-20T05:17:43;100757.78;;;18.87;92.23
56604;BME280;42486;47.478;19.036;2023-05-20T05:20:46;100747.44;;;18.50;92.55
56604;BME280;42486;47.478;19.036;2023-05-20T05:23:50;100757.81;;;18.25;93.18
56604;BME280;42486;47.478;19.036;2023-05-20T05:26:53;100759.41;;;18.18;92.45
56604;BME280;42486;47.478;19.036;2023-05-20T05:29:57;100758.22;;;18.57;91.95
56604;BME280;42486;47.478;19.036;2023-05-20T05:33:02;100760.16;;;18.46;93.37
56604;BME280;42486;47.478;19.036;2023-05-20T05:36:06;100764.34;;;18.57;91.88
56604;BME280;42486;47.478;19.036;2023-05-20T05:39:09;100753.59;;;18.15;94.83
56604;BME280;42486;47.478;19.036;2023-05-20T05:42:13;100758.50;;;17.92;95.27
56604;BME280;42486;47.478;19.036;2023-05-20T05:45:16;100756.09;;;17.80;96.42
56604;BME280;42486;47.478;19.036;2023-05-20T05:48:20;100763.31;;;17.78;96.58
56604;BME280;42486;47.478;19.036;2023-05-20T05:51:28;100763.91;;;17.72;95.98
56604;BME280;42486;47.478;19.036;2023-05-20T05:54:32;100761.16;;;17.92;94.71
56604;BME280;42486;47.478;19.036;2023-05-20T05:57:34;100761.59;;;17.87;95.52
56604;BME280;42486;47.478;19.036;2023-05-20T06:00:38;100765.63;;;17.91;96.80
56604;BME280;42486;47.478;19.036;2023-05-20T06:03:40;100767.44;;;17.91;93.18
56604;BME280;42486;47.478;19.036;2023-05-20T06:06:44;100768.22;;;17.73;91.89
56604;BME280;42486;47.478;19.036;2023-05-20T06:09:48;100755.03;;;17.91;94.12
56604;BME280;42486;47.478;19.036;2023-05-20T06:12:51;100764.62;;;18.10;93.85
56604;BME280;42486;47.478;19.036;2023-05-20T06:15:55;100764.31;;;18.31;89.15
56604;BME280;42486;47.478;19.036;2023-05-20T06:18:58;100772.81;;;18.61;88.06
56604;BME280;42486;47.478;19.036;2023-05-20T06:22:04;100775.72;;;18.94;86.07
56604;BME280;42486;47.478;19.036;2023-05-20T06:25:07;100771.31;;;19.10;80.32
56604;BME280;42486;47.478;19.036;2023-05-20T06:28:10;100768.78;;;19.35;76.48
56604;BME280;42486;47.478;19.036;2023-05-20T06:31:14;100761.28;;;19.30;75.68
56604;BME280;42486;47.478;19.036;2023-05-20T06:34:17;100760.41;;;19.64;76.66
56604;BME280;42486;47.478;19.036;2023-05-20T06:37:20;100754.00;;;19.67;75.16
56604;BME280;42486;47.478;19.036;2023-05-20T06:40:25;100759.00;;;20.02;74.13
56604;BME280;42486;47.478;19.036;2023-05-20T06:43:29;100764.34;;;20.43;70.64
56604;BME280;42486;47.478;19.036;2023-05-20T06:46:32;100767.31;;;20.40;73.55
56604;BME280;42486;47.478;19.036;2023-05-20T06:49:35;100762.50;;;20.36;72.62
56604;BME280;42486;47.478;19.036;2023-05-20T06:52:38;100765.50;;;20.24;73.12
56604;BME280;42486;47.478;19.036;2023-05-20T06:55:40;100763.81;;;20.07;71.42
56604;BME280;42486;47.478;19.036;2023-05-20T06:58:44;100765.63;;;19.90;72.53
56604;BME280;42486;47.478;19.036;2023-05-20T07:01:47;100761.16;;;19.99;74.96
56604;BME280;42486;47.478;19.036;2023-05-20T07:04:51;100760.00;;;20.01;73.44
56604;BME280;42486;47.478;19.036;2023-05-20T07:07:54;100755.53;;;20.18;74.35
56604;BME280;42486;47.478;19.036;2023-05-20T07:10:58;100765.84;;;20.38;70.91
56604;BME280;42486;47.478;19.036;2023-05-20T07:14:01;100764.28;;;20.84;67.93
56604;BME280;42486;47.478;19.036;2023-05-20T07:17:04;100746.38;;;21.26;67.67
56604;BME280;42486;47.478;19.036;2023-05-20T07:20:07;100753.31;;;21.97;63.05
56604;BME280;42486;47.478;19.036;2023-05-20T07:23:10;100747.47;;;22.25;62.33
56604;BME280;42486;47.478;19.036;2023-05-20T07:26:16;100752.37;;;23.04;58.46
56604;BME280;42486;47.478;19.036;2023-05-20T07:29:20;100754.53;;;25.77;50.47
56604;BME280;42486;47.478;19.036;2023-05-20T07:32:23;100757.75;;;27.32;44.56
56604;BME280;42486;47.478;19.036;2023-05-20T07:35:25;100763.94;;;29.14;39.77
56604;BME280;42486;47.478;19.036;2023-05-20T07:38:28;100765.94;;;29.01;40.45
56604;BME280;42486;47.478;19.036;2023-05-20T07:41:31;100764.62;;;30.54;35.70
56604;BME280;42486;47.478;19.036;2023-05-20T07:44:34;100764.97;;;30.46;35.07
56604;BME280;42486;47.478;19.036;2023-05-20T07:47:37;100768.31;;;30.06;36.53
56604;BME280;42486;47.478;19.036;2023-05-20T07:50:40;100765.81;;;30.35;36.92
56604;BME280;42486;47.478;19.036;2023-05-20T07:53:42;100764.59;;;30.78;34.42
56604;BME280;42486;47.478;19.036;2023-05-20T07:56:45;100766.00;;;30.21;36.53
56604;BME280;42486;47.478;19.036;2023-05-20T07:59:48;100769.53;;;30.69;36.23
56604;BME280;42486;47.478;19.036;2023-05-20T08:02:50;100762.75;;;30.43;36.91
56604;BME280;42486;47.478;19.036;2023-05-20T08:05:54;100754.16;;;28.15;40.67
56604;BME280;42486;47.478;19.036;2023-05-20T08:08:56;100747.38;;;26.37;44.52
56604;BME280;42486;47.478;19.036;2023-05-20T08:11:59;100744.06;;;24.86;48.11
56604;BME280;42486;47.478;19.036;2023-05-20T08:15:03;100738.72;;;23.65;52.44
56604;BME280;42486;47.478;19.036;2023-05-20T08:18:05;100734.34;;;23.57;55.56
56604;BME280;42486;47.478;19.036;2023-05-20T08:21:08;100731.59;;;23.14;55.51
56604;BME280;42486;47.478;19.036;2023-05-20T08:24:11;100731.47;;;23.59;57.79
56604;BME280;42486;47.478;19.036;2023-05-20T08:27:14;100728.47;;;24.33;56.44
56604;BME280;42486;47.478;19.036;2023-05-20T08:30:17;100726.47;;;25.04;53.30
56604;BME280;42486;47.478;19.036;2023-05-20T08:33:20;100726.75;;;24.18;53.71
56604;BME280;42486;47.478;19.036;2023-05-20T08:36:23;100710.91;;;23.95;56.65
56604;BME280;42486;47.478;19.036;2023-05-20T08:39:27;100722.94;;;23.85;54.70
56604;BME280;42486;47.478;19.036;2023-05-20T08:42:29;100714.00;;;23.56;55.53
56604;BME280;42486;47.478;19.036;2023-05-20T08:45:33;100717.50;;;23.57;57.96
56604;BME280;42486;47.478;19.036;2023-05-20T08:48:36;100718.84;;;23.31;57.50
56604;BME280;42486;47.478;19.036;2023-05-20T08:51:39;100710.19;;;23.44;56.36
56604;BME280;42486;47.478;19.036;2023-05-20T08:54:47;100703.78;;;23.60;56.58
56604;BME280;42486;47.478;19.036;2023-05-20T08:57:50;100706.06;;;23.63;54.86
56604;BME280;42486;47.478;19.036;2023-05-20T09:00:55;100708.72;;;23.41;57.82
56604;BME280;42486;47.478;19.036;2023-05-20T09:04:01;100701.41;;;23.50;56.25
56604;BME280;42486;47.478;19.036;2023-05-20T09:07:04;100696.97;;;23.36;58.71
56604;BME280;42486;47.478;19.036;2023-05-20T09:10:08;100688.72;;;23.52;57.67
56604;BME280;42486;47.478;19.036;2023-05-20T09:13:10;100689.38;;;23.54;56.38
56604;BME280;42486;47.478;19.036;2023-05-20T09:16:13;100695.75;;;23.74;56.28
56604;BME280;42486;47.478;19.036;2023-05-20T09:19:19;100689.13;;;23.70;55.26
56604;BME280;42486;47.478;19.036;2023-05-20T09:22:25;100693.47;;;23.71;57.27
56604;BME280;42486;47.478;19.036;2023-05-20T09:25:28;100688.25;;;23.85;59.42
56604;BME280;42486;47.478;19.036;2023-05-20T09:28:31;100694.25;;;23.93;60.38
56604;BME280;42486;47.478;19.036;2023-05-20T09:31:34;100690.03;;;23.99;55.27
56604;BME280;42486;47.478;19.036;2023-05-20T09:34:37;100682.16;;;24.19;56.43
56604;BME280;42486;47.478;19.036;2023-05-20T09:37:41;100681.37;;;23.97;56.75
56604;BME280;42486;47.478;19.036;2023-05-20T09:40:47;100674.78;;;24.21;55.88
56604;BME280;42486;47.478;19.036;2023-05-20T09:43:50;100668.66;;;24.27;50.38
56604;BME280;42486;47.478;19.036;2023-05-20T09:46:55;100668.72;;;24.34;50.71
56604;BME280;42486;47.478;19.036;2023-05-20T09:49:58;100661.09;;;24.31;50.07
56604;BME280;42486;47.478;19.036;2023-05-20T09:53:03;100651.44;;;24.58;51.15
56604;BME280;42486;47.478;19.036;2023-05-20T09:56:06;100643.31;;;24.79;49.28
56604;BME280;42486;47.478;19.036;2023-05-20T09:59:09;100642.66;;;24.71;50.20
56604;BME280;42486;47.478;19.036;2023-05-20T10:02:12;100638.81;;;24.93;49.90
56604;BME280;42486;47.478;19.036;2023-05-20T10:05:16;100636.78;;;24.95;50.16
56604;BME280;42486;47.478;19.036;2023-05-20T10:08:31;100630.66;;;25.08;47.63
56604;BME280;42486;47.478;19.036;2023-05-20T10:18:00;100635.69;;;25.38;47.34
56604;BME280;42486;47.478;19.036;2023-05-20T10:21:13;100632.78;;;25.26;42.00
56604;BME280;42486;47.478;19.036;2023-05-20T10:24:16;100635.97;;;25.01;47.50
56604;BME280;42486;47.478;19.036;2023-05-20T10:27:40;100619.75;;;25.10;44.23
56604;BME280;42486;47.478;19.036;2023-05-20T10:30:48;100622.00;;;25.13;44.74
56604;BME280;42486;47.478;19.036;2023-05-20T10:33:52;100613.03;;;25.34;43.01
56604;BME280;42486;47.478;19.036;2023-05-20T10:40:02;100609.38;;;25.61;42.47
56604;BME280;42486;47.478;19.036;2023-05-20T10:43:10;100605.06;;;25.80;44.65
56604;BME280;42486;47.478;19.036;2023-05-20T10:46:17;100610.00;;;25.90;39.18
56604;BME280;42486;47.478;19.036;2023-05-20T10:49:48;100608.16;;;25.90;36.72
56604;BME280;42486;47.478;19.036;2023-05-20T10:52:51;100596.37;;;25.71;40.91
56604;BME280;42486;47.478;19.036;2023-05-20T10:55:55;100594.53;;;26.05;44.88
56604;BME280;42486;47.478;19.036;2023-05-20T10:59:00;100590.41;;;26.09;40.40
56604;BME280;42486;47.478;19.036;2023-05-20T11:02:03;100590.81;;;26.20;41.41
56604;BME280;42486;47.478;19.036;2023-05-20T11:05:09;100588.69;;;26.35;42.21
56604;BME280;42486;47.478;19.036;2023-05-20T11:08:12;100582.25;;;26.49;38.90
56604;BME280;42486;47.478;19.036;2023-05-20T11:11:29;100584.59;;;26.19;39.83
56604;BME280;42486;47.478;19.036;2023-05-20T11:14:34;100579.87;;;26.21;42.93
56604;BME280;42486;47.478;19.036;2023-05-20T11:17:36;100587.25;;;26.32;41.33
56604;BME280;42486;47.478;19.036;2023-05-20T11:20:39;100577.84;;;26.10;40.05
56604;BME280;42486;47.478;19.036;2023-05-20T11:23:42;100581.12;;;26.25;39.91
56604;BME280;42486;47.478;19.036;2023-05-20T11:26:46;100575.72;;;26.32;41.53
56604;BME280;42486;47.478;19.036;2023-05-20T11:29:51;100566.88;;;26.31;40.58
56604;BME280;42486;47.478;19.036;2023-05-20T11:32:58;100573.59;;;26.54;43.24
56604;BME280;42486;47.478;19.036;2023-05-20T11:36:01;100564.19;;;26.31;41.13
56604;BME280;42486;47.478;19.036;2023-05-20T11:39:05;100564.31;;;26.50;39.97
56604;BME280;42486;47.478;19.036;2023-05-20T11:42:08;100565.31;;;26.62;42.62
56604;BME280;42486;47.478;19.036;2023-05-20T11:45:12;100563.38;;;26.83;42.08
56604;BME280;42486;47.478;19.036;2023-05-20T11:48:15;100567.94;;;27.14;39.81
56604;BME280;42486;47.478;19.036;2023-05-20T11:51:22;100560.91;;;27.19;38.76
56604;BME280;42486;47.478;19.036;2023-05-20T11:54:26;100567.13;;;27.13;39.99
56604;BME280;42486;47.478;19.036;2023-05-20T11:57:29;100553.69;;;26.82;41.30
56604;BME280;42486;47.478;19.036;2023-05-20T12:00:32;100554.97;;;27.04;41.43
56604;BME280;42486;47.478;19.036;2023-05-20T12:03:52;100552.47;;;27.09;41.83
56604;BME280;42486;47.478;19.036;2023-05-20T12:06:56;100552.22;;;27.24;38.71
56604;BME280;42486;47.478;19.036;2023-05-20T12:10:00;100554.53;;;27.07;40.00
56604;BME280;42486;47.478;19.036;2023-05-20T12:13:03;100539.84;;;26.85;39.92
56604;BME280;42486;47.478;19.036;2023-05-20T12:16:09;100546.00;;;26.92;39.16
56604;BME280;42486;47.478;19.036;2023-05-20T12:19:12;100539.97;;;26.96;38.05
56604;BME280;42486;47.478;19.036;2023-05-20T12:22:15;100552.03;;;27.19;39.64
56604;BME280;42486;47.478;19.036;2023-05-20T12:25:18;100555.75;;;27.18;35.67
56604;BME280;42486;47.478;19.036;2023-05-20T12:28:21;100549.75;;;26.84;38.91
56604;BME280;42486;47.478;19.036;2023-05-20T12:31:24;100541.47;;;26.86;37.02
56604;BME280;42486;47.478;19.036;2023-05-20T12:34:27;100545.94;;;26.98;38.27
56604;BME280;42486;47.478;19.036;2023-05-20T12:37:30;100541.91;;;26.83;37.74
56604;BME280;42486;47.478;19.036;2023-05-20T12:40:35;100537.38;;;26.83;38.33
56604;BME280;42486;47.478;19.036;2023-05-20T12:43:38;100542.31;;;26.86;37.57
56604;BME280;42486;47.478;19.036;2023-05-20T12:46:40;100535.69;;;26.89;38.37
56604;BME280;42486;47.478;19.036;2023-05-20T12:49:44;100532.63;;;26.85;39.04
56604;BME280;42486;47.478;19.036;2023-05-20T12:52:47;100526.53;;;26.65;37.58
56604;BME280;42486;47.478;19.036;2023-05-20T12:55:50;100521.22;;;26.58;39.56
56604;BME280;42486;47.478;19.036;2023-05-20T12:58:53;100521.03;;;26.60;39.61
56604;BME280;42486;47.478;19.036;2023-05-20T13:01:56;100522.22;;;26.64;38.08
56604;BME280;42486;47.478;19.036;2023-05-20T13:04:59;100530.88;;;26.66;40.27
56604;BME280;42486;47.478;19.036;2023-05-20T13:08:02;100515.34;;;26.74;38.68
56604;BME280;42486;47.478;19.036;2023-05-20T13:11:04;100515.41;;;26.68;38.57
56604;BME280;42486;47.478;19.036;2023-05-20T13:14:07;100510.06;;;26.61;39.97
56604;BME280;42486;47.478;19.036;2023-05-20T13:17:10;100506.94;;;26.71;41.84
56604;BME280;42486;47.478;19.036;2023-05-20T13:20:13;100495.88;;;26.54;38.51
56604;BME280;42486;47.478;19.036;2023-05-20T13:23:18;100495.47;;;26.50;40.63
56604;BME280;42486;47.478;19.036;2023-05-20T13:26:20;100489.81;;;26.72;40.83
56604;BME280;42486;47.478;19.036;2023-05-20T13:29:23;100493.53;;;26.71;42.10
56604;BME280;42486;47.478;19.036;2023-05-20T13:32:26;100484.69;;;26.64;41.65
56604;BME280;42486;47.478;19.036;2023-05-20T13:35:29;100488.59;;;26.68;40.57
56604;BME280;42486;47.478;19.036;2023-05-20T13:38:32;100482.50;;;26.47;41.61
56604;BME280;42486;47.478;19.036;2023-05-20T13:41:36;100475.16;;;26.29;42.30
56604;BME280;42486;47.478;19.036;2023-05-20T13:44:38;100479.50;;;26.24;44.70
56604;BME280;42486;47.478;19.036;2023-05-20T13:47:42;100470.69;;;26.17;43.36
56604;BME280;42486;47.478;19.036;2023-05-20T13:50:44;100476.78;;;26.37;42.56
56604;BME280;42486;47.478;19.036;2023-05-20T13:53:47;100475.31;;;26.41;43.24
56604;BME280;42486;47.478;19.036;2023-05-20T13:56:50;100478.19;;;26.46;44.31
56604;BME280;42486;47.478;19.036;2023-05-20T13:59:53;100471.41;;;26.44;41.85
56604;BME280;42486;47.478;19.036;2023-05-20T14:02:55;100463.19;;;26.39;42.23
56604;BME280;42486;47.478;19.036;2023-05-20T14:05:59;100474.09;;;26.37;39.23
56604;BME280;42486;47.478;19.036;2023-05-20T14:09:02;100465.56;;;26.08;39.26
56604;BME280;42486;47.478;19.036;2023-05-20T14:12:05;100470.47;;;26.18;40.31
56604;BME280;42486;47.478;19.036;2023-05-20T14:15:09;100465.06;;;26.25;40.51
56604;BME280;42486;47.478;19.036;2023-05-20T14:18:12;100458.28;;;26.29;41.02
56604;BME280;42486;47.478;19.036;2023-05-20T14:21:14;100455.59;;;26.22;40.30
56604;BME280;42486;47.478;19.036;2023-05-20T14:24:17;100450.13;;;26.10;41.58
56604;BME280;42486;47.478;19.036;2023-05-20T14:27:22;100457.50;;;26.15;39.77
56604;BME280;42486;47.478;19.036;2023-05-20T14:30:25;100450.13;;;26.10;40.64
56604;BME280;42486;47.478;19.036;2023-05-20T14:33:28;100448.25;;;26.11;40.87
56604;BME280;42486;47.478;19.036;2023-05-20T14:36:31;100444.31;;;26.13;40.90
56604;BME280;42486;47.478;19.036;2023-05-20T14:39:34;100443.53;;;26.06;40.79
56604;BME280;42486;47.478;19.036;2023-05-20T14:42:37;100434.13;;;25.90;40.29
56604;BME280;42486;47.478;19.036;2023-05-20T14:45:40;100429.97;;;26.01;39.83
56604;BME280;42486;47.478;19.036;2023-05-20T14:48:42;100426.38;;;26.14;39.00
56604;BME280;42486;47.478;19.036;2023-05-20T14:51:45;100432.84;;;26.00;40.96
56604;BME280;42486;47.478;19.036;2023-05-20T14:54:48;100434.59;;;25.67;38.90
56604;BME280;42486;47.478;19.036;2023-05-20T14:57:51;100431.06;;;25.74;40.87
56604;BME280;42486;47.478;19.036;2023-05-20T15:00:53;100433.94;;;25.85;41.03
56604;BME280;42486;47.478;19.036;2023-05-20T15:03:56;100430.66;;;25.63;41.06
56604;BME280;42486;47.478;19.036;2023-05-20T15:06:59;100427.59;;;25.60;39.37
56604;BME280;42486;47.478;19.036;2023-05-20T15:10:02;100428.66;;;25.59;40.59
56604;BME280;42486;47.478;19.036;2023-05-20T15:13:05;100431.69;;;25.69;40.94
56604;BME280;42486;47.478;19.036;2023-05-20T15:16:07;100429.00;;;25.76;39.81
56604;BME280;42486;47.478;19.036;2023-05-20T15:19:11;100418.72;;;25.66;42.06
56604;BME280;42486;47.478;19.036;2023-05-20T15:22:15;100423.84;;;25.74;41.31
56604;BME280;42486;47.478;19.036;2023-05-20T15:25:17;100415.81;;;25.81;42.36
56604;BME280;42486;47.478;19.036;2023-05-20T15:28:20;100409.63;;;25.80;41.39
56604;BME280;42486;47.478;19.036;2023-05-20T15:31:23;100411.69;;;25.85;42.18
56604;BME280;42486;47.478;19.036;2023-05-20T15:34:26;100399.34;;;25.84;43.14
56604;BME280;42486;47.478;19.036;2023-05-20T15:37:28;100394.88;;;25.64;44.50
56604;BME280;42486;47.478;19.036;2023-05-20T15:40:32;100397.00;;;25.36;44.85
56604;BME280;42486;47.478;19.036;2023-05-20T15:43:35;100400.50;;;25.10;45.36
56604;BME280;42486;47.478;19.036;2023-05-20T15:46:38;100395.38;;;24.95;45.85
56604;BME280;42486;47.478;19.036;2023-05-20T15:49:41;100390.63;;;24.70;45.71
56604;BME280;42486;47.478;19.036;2023-05-20T15:52:45;100387.34;;;24.68;46.54
56604;BME280;42486;47.478;19.036;2023-05-20T15:55:48;100388.59;;;24.79;46.76
56604;BME280;42486;47.478;19.036;2023-05-20T15:58:52;100387.75;;;24.85;46.91
56604;BME280;42486;47.478;19.036;2023-05-20T16:01:55;100386.31;;;24.82;46.96